createdAt,value
2022-10-21T00:02:07.911Z,7.20
2022-10-21T00:04:34.773Z,7.20
2022-10-21T00:07:01.755Z,7.20
2022-10-21T00:09:28.615Z,7.20
2022-10-21T00:11:55.435Z,7.20
2022-10-21T00:14:22.370Z,7.20
2022-10-21T00:16:49.283Z,7.20
2022-10-21T00:19:16.306Z,7.20
2022-10-21T00:21:43.162Z,7.20
2022-10-21T00:24:10.090Z,7.20
2022-10-21T00:26:38.477Z,7.30
2022-10-21T00:29:05.632Z,7.20
2022-10-21T00:31:33.933Z,7.20
2022-10-21T00:34:00.860Z,7.20
2022-10-21T00:36:27.712Z,7.20
2022-10-21T00:38:56.774Z,7.20
2022-10-21T00:41:23.738Z,7.20
2022-10-21T00:44:17.010Z,7.20
2022-10-21T00:47:09.033Z,7.20
2022-10-21T00:49:48.941Z,7.20
2022-10-21T00:52:20.278Z,7.20
2022-10-21T00:54:50.105Z,7.20
2022-10-21T00:57:18.859Z,7.20
2022-10-21T00:59:51.819Z,7.20
2022-10-21T01:02:19.020Z,7.20
2022-10-21T01:04:47.404Z,7.20
2022-10-21T01:07:14.308Z,7.20
2022-10-21T01:09:41.208Z,7.20
2022-10-21T01:12:15.463Z,7.30
2022-10-21T01:15:00.807Z,7.30
2022-10-21T01:17:52.230Z,7.20
2022-10-21T01:20:31.265Z,7.30
2022-10-21T01:23:16.307Z,7.20
2022-10-21T01:26:13.811Z,7.20
2022-10-21T01:28:55.713Z,7.20
2022-10-21T01:32:00.627Z,7.20
2022-10-21T01:34:54.214Z,7.20
2022-10-21T01:37:58.018Z,7.20
2022-10-21T01:40:54.815Z,7.20
2022-10-21T01:43:39.153Z,7.20
2022-10-21T01:46:20.509Z,7.20
2022-10-21T01:48:56.801Z,7.20
2022-10-21T01:54:09.472Z,7.20
2022-10-21T01:56:38.954Z,7.20
2022-10-21T01:59:08.194Z,7.20
2022-10-21T02:01:37.135Z,7.20
2022-10-21T02:04:04.772Z,7.20
2022-10-21T02:06:31.924Z,7.20
2022-10-21T02:08:58.986Z,7.10
2022-10-21T02:11:26.342Z,7.10
2022-10-21T02:14:04.946Z,7.10
2022-10-21T02:16:36.937Z,7.00
2022-10-21T02:19:04.548Z,7.00
2022-10-21T02:21:36.225Z,6.90
2022-10-21T02:24:25.831Z,6.80
2022-10-21T02:26:52.993Z,6.70
2022-10-21T02:29:25.924Z,6.60
2022-10-21T02:32:01.728Z,6.60
2022-10-21T02:34:31.721Z,6.50
2022-10-21T02:37:23.283Z,6.50
2022-10-21T02:39:56.209Z,6.40
2022-10-21T02:42:32.396Z,6.40
2022-10-21T02:45:01.529Z,6.40
2022-10-21T02:47:29.701Z,6.40
2022-10-21T02:49:56.600Z,6.50
2022-10-21T02:52:23.545Z,6.40
2022-10-21T02:54:50.412Z,6.40
2022-10-21T02:57:17.257Z,6.40
2022-10-21T02:59:44.055Z,6.40
2022-10-21T03:02:11.029Z,6.40
2022-10-21T03:04:37.962Z,6.50
2022-10-21T03:07:04.834Z,6.50
2022-10-21T03:09:31.664Z,6.40
2022-10-21T03:11:58.588Z,6.50
2022-10-21T03:14:25.403Z,6.50
2022-10-21T03:16:52.255Z,6.60
2022-10-21T03:19:19.142Z,6.60
2022-10-21T03:21:45.990Z,6.60
2022-10-21T03:24:19.845Z,6.60
2022-10-21T03:26:55.210Z,6.60
2022-10-21T03:29:22.273Z,6.70
2022-10-21T03:31:49.235Z,6.70
2022-10-21T03:34:16.217Z,6.80
2022-10-21T03:36:43.067Z,6.80
2022-10-21T03:39:11.431Z,6.80
2022-10-21T03:41:38.567Z,6.80
2022-10-21T03:44:05.439Z,6.90
2022-10-21T03:46:32.689Z,6.90
2022-10-21T03:49:04.201Z,6.80
2022-10-21T03:51:32.722Z,6.90
2022-10-21T03:53:59.627Z,6.90
2022-10-21T03:56:26.571Z,6.90
2022-10-21T03:58:57.760Z,6.90
2022-10-21T04:01:25.910Z,6.90
2022-10-21T04:03:52.796Z,6.90
2022-10-21T04:06:19.666Z,6.90
2022-10-21T04:08:46.643Z,6.90
2022-10-21T04:11:13.640Z,6.90
2022-10-21T04:13:40.694Z,7.00
2022-10-21T04:16:11.408Z,7.00
2022-10-21T04:18:38.260Z,7.00
2022-10-21T04:21:05.264Z,7.00
2022-10-21T04:23:32.113Z,7.00
2022-10-21T04:25:59.025Z,7.00
2022-10-21T04:28:25.858Z,7.00
2022-10-21T04:30:52.931Z,7.00
2022-10-21T04:33:19.813Z,6.90
2022-10-21T04:35:46.742Z,6.90
2022-10-21T04:38:13.640Z,7.00
2022-10-21T04:40:40.864Z,6.90
2022-10-21T04:43:07.912Z,7.00
2022-10-21T04:45:34.736Z,7.00
2022-10-21T04:48:01.589Z,7.00
2022-10-21T04:50:28.435Z,6.90
2022-10-21T04:52:55.311Z,7.00
2022-10-21T04:55:22.166Z,7.00
2022-10-21T04:57:49.021Z,7.00
2022-10-21T05:00:15.927Z,7.00
2022-10-21T05:02:42.916Z,7.00
2022-10-21T05:05:09.971Z,7.00
2022-10-21T05:07:36.954Z,7.00
2022-10-21T05:10:04.385Z,7.00
2022-10-21T05:12:31.289Z,7.00
2022-10-21T05:15:00.608Z,7.00
2022-10-21T05:17:27.538Z,7.00
2022-10-21T05:19:54.399Z,7.00
2022-10-21T05:22:21.298Z,7.00
2022-10-21T05:24:48.353Z,7.00
2022-10-21T05:27:15.314Z,7.00
2022-10-21T05:29:42.167Z,7.00
2022-10-21T05:32:09.045Z,7.00
2022-10-21T05:34:35.935Z,7.00
2022-10-21T05:37:02.911Z,7.10
2022-10-21T05:39:29.839Z,7.10
2022-10-21T05:41:56.831Z,7.10
2022-10-21T05:44:23.792Z,7.10
2022-10-21T05:46:50.639Z,7.10
2022-10-21T05:49:17.497Z,7.10
2022-10-21T05:51:45.272Z,7.10
2022-10-21T05:54:12.239Z,7.10
2022-10-21T05:56:39.203Z,7.10
2022-10-21T05:59:07.938Z,7.10
2022-10-21T06:01:37.121Z,7.10
2022-10-21T06:04:04.131Z,7.20
2022-10-21T06:06:31.277Z,7.20
2022-10-21T06:08:58.181Z,7.20
2022-10-21T06:11:25.269Z,7.30
2022-10-21T06:13:52.207Z,7.40
2022-10-21T06:16:19.109Z,7.40
2022-10-21T06:18:46.163Z,7.30
2022-10-21T06:21:13.144Z,7.40
2022-10-21T06:23:40.301Z,7.40
2022-10-21T06:26:10.698Z,7.40
2022-10-21T06:28:39.381Z,7.50
2022-10-21T06:31:08.186Z,7.50
2022-10-21T06:33:35.406Z,7.50
2022-10-21T06:36:02.311Z,7.50
2022-10-21T06:38:29.286Z,7.50
2022-10-21T06:41:10.544Z,7.50
2022-10-21T06:43:41.124Z,7.50
2022-10-21T06:46:11.516Z,7.60
2022-10-21T06:48:38.643Z,7.60
2022-10-21T06:51:17.806Z,7.60
2022-10-21T06:53:45.352Z,7.60
2022-10-21T06:56:16.621Z,7.60
2022-10-21T06:58:48.003Z,7.60
2022-10-21T07:01:34.910Z,7.60
2022-10-21T07:04:09.833Z,7.70
2022-10-21T07:06:37.493Z,7.70
2022-10-21T07:09:06.497Z,7.80
2022-10-21T07:11:33.470Z,7.80
2022-10-21T07:14:01.892Z,7.80
2022-10-21T07:16:31.182Z,7.80
2022-10-21T07:18:58.988Z,8.00
2022-10-21T07:21:28.296Z,7.90
2022-10-21T07:23:59.077Z,8.00
2022-10-21T07:26:29.171Z,8.00
2022-10-21T07:28:58.551Z,8.10
2022-10-21T07:31:26.379Z,8.10
2022-10-21T07:33:53.698Z,8.10
2022-10-21T07:36:27.133Z,8.20
2022-10-21T07:38:55.492Z,8.20
2022-10-21T07:41:28.193Z,8.20
2022-10-21T07:43:55.261Z,8.30
2022-10-21T07:46:22.502Z,8.40
2022-10-21T07:48:50.662Z,8.40
2022-10-21T07:51:20.913Z,8.40
2022-10-21T07:53:52.535Z,8.40
2022-10-21T07:56:22.762Z,8.40
2022-10-21T07:58:50.265Z,8.50
2022-10-21T08:01:17.984Z,8.40
2022-10-21T08:03:45.593Z,8.40
2022-10-21T08:06:14.833Z,8.40
2022-10-21T08:08:42.243Z,8.40
2022-10-21T08:11:09.473Z,8.40
2022-10-21T08:13:38.235Z,8.50
2022-10-21T08:16:06.752Z,8.60
2022-10-21T08:18:33.786Z,8.60
2022-10-21T08:21:04.159Z,8.70
2022-10-21T08:23:31.645Z,8.70
2022-10-21T08:26:02.966Z,8.70
2022-10-21T08:28:31.349Z,8.70
2022-10-21T08:31:10.478Z,8.70
2022-10-21T08:33:38.488Z,8.70
2022-10-21T08:36:09.904Z,8.80
2022-10-21T08:38:36.840Z,8.80
2022-10-21T08:41:18.079Z,8.80
2022-10-21T08:43:45.072Z,8.80
2022-10-21T08:46:17.196Z,8.90
2022-10-21T08:48:50.301Z,8.80
2022-10-21T08:51:39.979Z,8.90
2022-10-21T08:54:16.150Z,8.80
2022-10-21T08:56:43.441Z,8.80
2022-10-21T08:59:20.711Z,8.70
2022-10-21T09:01:58.480Z,8.70
2022-10-21T09:05:12.569Z,8.80
2022-10-21T09:07:45.574Z,8.80
2022-10-21T09:10:18.344Z,8.90
2022-10-21T09:13:20.433Z,9.00
2022-10-21T09:16:13.369Z,9.10
2022-10-21T09:18:55.207Z,9.10
2022-10-21T09:22:22.529Z,9.10
2022-10-21T09:24:54.153Z,9.20
2022-10-21T09:27:31.829Z,9.20
2022-10-21T09:30:07.472Z,9.20
2022-10-21T09:32:41.673Z,9.20
2022-10-21T09:35:20.593Z,9.20
2022-10-21T09:37:57.855Z,9.20
2022-10-21T09:40:28.580Z,9.30
2022-10-21T09:42:58.992Z,9.30
2022-10-21T09:45:31.832Z,9.30
2022-10-21T09:48:10.139Z,9.30
2022-10-21T09:50:38.144Z,9.30
2022-10-21T09:53:11.934Z,9.20
2022-10-21T09:55:40.533Z,9.20
2022-10-21T09:58:07.469Z,9.30
2022-10-21T10:01:00.983Z,9.40
2022-10-21T10:03:46.153Z,9.40
2022-10-21T10:06:13.372Z,9.50
2022-10-21T10:08:44.733Z,9.40
2022-10-21T10:11:13.926Z,9.40
2022-10-21T10:13:49.369Z,9.40
2022-10-21T10:16:30.333Z,9.40
2022-10-21T10:19:18.847Z,9.40
2022-10-21T10:21:48.648Z,9.40
2022-10-21T10:24:21.156Z,9.40
2022-10-21T10:26:49.279Z,9.40
2022-10-21T10:29:16.766Z,9.40
2022-10-21T10:31:50.945Z,9.40
2022-10-21T10:34:31.505Z,9.30
2022-10-21T10:37:20.800Z,9.30
2022-10-21T10:39:51.577Z,9.30
2022-10-21T10:42:25.116Z,9.40
2022-10-21T10:44:55.555Z,9.40
2022-10-21T10:47:31.541Z,9.40
2022-10-21T10:49:59.705Z,9.40
2022-10-21T10:52:28.124Z,9.50
2022-10-21T10:55:15.673Z,9.50
2022-10-21T11:00:20.772Z,9.50
2022-10-21T11:03:02.936Z,9.60
2022-10-21T11:05:49.477Z,9.70
2022-10-21T11:08:34.230Z,9.70
2022-10-21T11:11:04.977Z,9.70
2022-10-21T11:13:38.837Z,9.70
2022-10-21T11:16:14.254Z,9.80
2022-10-21T11:18:49.360Z,9.80
2022-10-21T11:21:46.280Z,9.70
2022-10-21T11:24:36.136Z,9.70
2022-10-21T11:27:20.563Z,9.70
2022-10-21T11:30:09.703Z,9.70
2022-10-21T11:33:01.459Z,9.70
2022-10-21T11:35:53.054Z,9.80
2022-10-21T11:38:39.636Z,9.80
2022-10-21T11:41:09.592Z,9.90
2022-10-21T11:44:13.340Z,9.90
2022-10-21T11:46:51.582Z,9.80
2022-10-21T11:49:27.233Z,9.80
2022-10-21T11:52:08.454Z,9.90
2022-10-21T11:55:10.115Z,10.00
2022-10-21T11:57:52.731Z,10.00
2022-10-21T12:00:25.139Z,10.10
2022-10-21T12:03:19.919Z,10.10
2022-10-21T12:06:02.961Z,10.10
2022-10-21T12:09:00.428Z,10.10
2022-10-21T12:12:27.983Z,10.10
2022-10-21T12:15:00.295Z,10.20
2022-10-21T12:17:27.273Z,10.20
2022-10-21T12:20:07.617Z,10.20
2022-10-21T12:22:35.223Z,10.10
2022-10-21T12:25:24.775Z,10.10
2022-10-21T12:28:00.284Z,10.10
2022-10-21T12:30:40.997Z,10.20
2022-10-21T12:33:37.467Z,10.10
2022-10-21T12:36:19.443Z,10.10
2022-10-21T12:38:56.210Z,10.10
2022-10-21T12:41:35.067Z,10.10
2022-10-21T12:44:01.831Z,10.00
2022-10-21T12:46:39.987Z,10.00
2022-10-21T12:49:19.431Z,10.00
2022-10-21T12:51:51.338Z,9.90
2022-10-21T12:54:25.342Z,9.90
2022-10-21T12:57:04.965Z,9.90
2022-10-21T12:59:38.674Z,9.90
2022-10-21T13:02:05.467Z,9.80
2022-10-21T13:04:32.332Z,9.80
2022-10-21T13:07:01.563Z,9.80
2022-10-21T13:09:31.214Z,9.80
2022-10-21T13:12:24.347Z,9.70
2022-10-21T13:14:56.028Z,9.70
2022-10-21T13:17:22.836Z,9.60
2022-10-21T13:19:53.748Z,9.70
2022-10-21T13:22:36.952Z,9.70
2022-10-21T13:25:16.344Z,9.70
2022-10-21T13:27:48.725Z,9.70
2022-10-21T13:30:37.929Z,9.70
2022-10-21T13:33:19.383Z,9.70
2022-10-21T13:35:57.171Z,9.70
2022-10-21T13:38:25.544Z,9.70
2022-10-21T13:40:58.942Z,9.60
2022-10-21T13:43:29.326Z,9.60
2022-10-21T13:46:13.731Z,9.50
2022-10-21T13:48:44.507Z,9.50
2022-10-21T13:51:45.036Z,9.50
2022-10-21T13:54:14.973Z,9.40
2022-10-21T13:56:43.120Z,9.40
2022-10-21T13:59:39.362Z,9.30
2022-10-21T14:02:06.461Z,9.30
2022-10-21T14:04:40.256Z,9.20
2022-10-21T14:07:16.987Z,9.20
2022-10-21T14:09:47.182Z,9.10
2022-10-21T14:12:27.807Z,9.10
2022-10-21T14:14:57.572Z,9.00
2022-10-21T14:17:27.333Z,9.10
2022-10-21T14:20:00.292Z,9.00
2022-10-21T14:22:29.423Z,9.00
2022-10-21T14:24:58.661Z,8.90
2022-10-21T14:27:31.068Z,8.80
2022-10-21T14:30:01.455Z,8.80
2022-10-21T14:32:29.772Z,8.80
2022-10-21T14:35:09.797Z,8.80
2022-10-21T14:37:42.013Z,8.70
2022-10-21T14:40:26.404Z,8.70
2022-10-21T14:42:55.686Z,8.60
2022-10-21T14:45:32.563Z,8.60
2022-10-21T14:48:12.281Z,8.60
2022-10-21T14:50:40.951Z,8.50
2022-10-21T14:53:18.438Z,8.50
2022-10-21T14:55:47.481Z,8.40
2022-10-21T14:58:22.830Z,8.40
2022-10-21T15:00:57.529Z,8.30
2022-10-21T15:03:45.952Z,8.30
2022-10-21T15:06:30.955Z,8.30
2022-10-21T15:08:57.959Z,8.30
2022-10-21T15:11:29.097Z,8.30
2022-10-21T15:14:12.545Z,8.30
2022-10-21T15:17:03.613Z,8.20
2022-10-21T15:19:46.054Z,8.20
2022-10-21T15:22:23.776Z,8.20
2022-10-21T15:24:52.718Z,8.10
2022-10-21T15:27:25.425Z,8.10
2022-10-21T15:29:52.947Z,8.10
2022-10-21T15:32:24.341Z,8.10
2022-10-21T15:34:54.343Z,8.00
2022-10-21T15:37:21.263Z,8.00
2022-10-21T15:39:48.669Z,8.00
2022-10-21T15:42:18.525Z,8.00
2022-10-21T15:44:50.696Z,7.90
2022-10-21T15:47:17.677Z,8.00
2022-10-21T15:49:46.740Z,7.90
2022-10-21T15:52:14.606Z,7.90
2022-10-21T15:54:42.535Z,8.00
2022-10-21T15:57:27.627Z,7.90
2022-10-21T15:59:54.625Z,7.90
2022-10-21T16:02:21.445Z,7.90
2022-10-21T16:04:48.312Z,7.90
2022-10-21T16:07:18.791Z,7.90
2022-10-21T16:09:45.941Z,7.90
2022-10-21T16:12:13.387Z,7.80
2022-10-21T16:14:40.339Z,7.90
2022-10-21T16:17:09.388Z,7.90
2022-10-21T16:19:36.270Z,7.80
2022-10-21T16:22:03.162Z,7.80
2022-10-21T16:24:30.024Z,7.70
2022-10-21T16:26:56.880Z,7.70
2022-10-21T16:29:25.333Z,7.70
2022-10-21T16:31:52.931Z,7.60
2022-10-21T16:34:20.332Z,7.60
2022-10-21T16:36:47.377Z,7.50
2022-10-21T16:39:16.020Z,7.50
2022-10-21T16:41:42.911Z,7.50
2022-10-21T16:44:09.991Z,7.40
2022-10-21T16:46:41.887Z,7.50
2022-10-21T16:49:14.186Z,7.40
2022-10-21T16:51:43.276Z,7.40
2022-10-21T16:54:10.908Z,7.40
2022-10-21T16:56:37.882Z,7.30
2022-10-21T16:59:05.257Z,7.30
2022-10-21T17:01:32.203Z,7.30
2022-10-21T17:03:59.199Z,7.30
2022-10-21T17:06:27.293Z,7.30
2022-10-21T17:08:55.594Z,7.30
2022-10-21T17:11:25.344Z,7.20
2022-10-21T17:13:52.329Z,7.20
2022-10-21T17:16:20.397Z,7.20
2022-10-21T17:18:48.253Z,7.20
2022-10-21T17:21:26.790Z,7.20
2022-10-21T17:23:54.740Z,7.20
2022-10-21T17:26:22.230Z,7.20
2022-10-21T17:28:49.251Z,7.10
2022-10-21T17:31:18.987Z,7.10
2022-10-21T17:33:47.409Z,7.10
2022-10-21T17:36:15.662Z,7.10
2022-10-21T17:38:43.115Z,7.00
2022-10-21T17:41:11.426Z,7.00
2022-10-21T17:43:38.371Z,6.90
2022-10-21T17:46:05.528Z,7.00
2022-10-21T17:48:33.366Z,6.90
2022-10-21T17:51:02.185Z,6.90
2022-10-21T17:53:30.755Z,6.90
2022-10-21T17:56:06.188Z,6.90
2022-10-21T17:58:33.881Z,6.80
2022-10-21T18:01:05.827Z,6.80
2022-10-21T18:03:32.832Z,6.80
2022-10-21T18:05:59.772Z,6.90
2022-10-21T18:08:26.650Z,6.90
2022-10-21T18:10:55.715Z,6.80
2022-10-21T18:13:24.317Z,6.80
2022-10-21T18:15:51.692Z,6.80
2022-10-21T18:18:19.957Z,6.70
2022-10-21T18:20:47.642Z,6.70
2022-10-21T18:23:16.508Z,6.70
2022-10-21T18:25:43.469Z,6.60
2022-10-21T18:28:10.592Z,6.50
2022-10-21T18:30:43.214Z,6.50
2022-10-21T18:33:10.583Z,6.40
2022-10-21T18:35:37.479Z,6.40
2022-10-21T18:38:04.365Z,6.40
2022-10-21T18:40:33.487Z,6.30
2022-10-21T18:43:00.364Z,6.40
2022-10-21T18:45:27.195Z,6.30
2022-10-21T18:47:55.644Z,6.30
2022-10-21T18:50:22.515Z,6.30
2022-10-21T18:52:49.429Z,6.30
2022-10-21T18:55:16.404Z,6.30
2022-10-21T18:57:43.462Z,6.30
2022-10-21T19:00:10.769Z,6.30
2022-10-21T19:02:37.622Z,6.30
2022-10-21T19:05:04.923Z,6.30
2022-10-21T19:07:31.828Z,6.30
2022-10-21T19:09:58.709Z,6.30
2022-10-21T19:12:25.615Z,6.40
2022-10-21T19:14:52.448Z,6.40
2022-10-21T19:17:19.838Z,6.40
2022-10-21T19:19:50.663Z,6.40
2022-10-21T19:22:18.537Z,6.40
2022-10-21T19:24:45.477Z,6.40
2022-10-21T19:27:12.589Z,6.40
2022-10-21T19:29:39.470Z,6.40
2022-10-21T19:32:06.345Z,6.40
2022-10-21T19:34:33.211Z,6.40
2022-10-21T19:37:00.137Z,6.30
2022-10-21T19:39:27.239Z,6.30
2022-10-21T19:41:54.063Z,6.40
2022-10-21T19:44:21.353Z,6.40
2022-10-21T19:46:48.220Z,6.30
2022-10-21T19:49:15.407Z,6.30
2022-10-21T19:51:42.407Z,6.30
2022-10-21T19:54:11.227Z,6.20
2022-10-21T19:56:38.100Z,6.20
2022-10-21T19:59:06.126Z,6.20
2022-10-21T20:01:34.497Z,6.10
2022-10-21T20:04:02.653Z,6.10
2022-10-21T20:06:35.942Z,6.10
2022-10-21T20:09:09.104Z,6.10
2022-10-21T20:11:36.947Z,6.10
2022-10-21T20:14:04.615Z,6.10
2022-10-21T20:16:42.029Z,6.10
2022-10-21T20:19:10.766Z,6.00
2022-10-21T20:21:38.135Z,6.00
2022-10-21T20:24:05.499Z,6.00
2022-10-21T20:26:32.906Z,6.00
2022-10-21T20:29:01.990Z,5.90
2022-10-21T20:31:29.405Z,5.90
2022-10-21T20:33:59.090Z,5.90
2022-10-21T20:36:34.506Z,5.80
2022-10-21T20:39:03.011Z,5.80
2022-10-21T20:41:34.295Z,5.70
2022-10-21T20:44:02.187Z,5.70
2022-10-21T20:46:32.504Z,5.70
2022-10-21T20:48:59.377Z,5.70
2022-10-21T20:51:31.523Z,5.60
2022-10-21T20:54:04.578Z,5.50
2022-10-21T20:56:37.195Z,5.50
2022-10-21T20:59:05.563Z,5.50
2022-10-21T21:01:35.123Z,5.40
2022-10-21T21:04:08.592Z,5.40
2022-10-21T21:06:41.118Z,5.40
2022-10-21T21:09:33.119Z,5.30
2022-10-21T21:11:55.385Z,5.30
2022-10-21T21:14:22.392Z,5.20
2022-10-21T21:16:49.236Z,5.10
2022-10-21T21:19:16.102Z,5.10
2022-10-21T21:21:42.978Z,5.00
2022-10-21T21:24:09.867Z,5.00
2022-10-21T21:26:38.580Z,5.10
2022-10-21T21:29:07.837Z,5.10
2022-10-21T21:31:37.107Z,5.10
2022-10-21T21:34:04.609Z,5.20
2022-10-21T21:36:31.492Z,5.20
2022-10-21T21:38:58.476Z,5.20
2022-10-21T21:41:26.423Z,5.10
2022-10-21T21:43:54.146Z,5.10
2022-10-21T21:46:25.296Z,5.10
2022-10-21T21:49:01.022Z,5.10
2022-10-21T21:51:31.234Z,5.10
2022-10-21T21:53:59.016Z,5.10
2022-10-21T21:56:26.582Z,5.10
2022-10-21T21:58:58.050Z,5.20
2022-10-21T22:01:28.119Z,5.10
2022-10-21T22:03:55.862Z,5.10
2022-10-21T22:08:53.273Z,5.10
2022-10-21T22:11:24.949Z,5.20
2022-10-21T22:13:52.479Z,5.20
2022-10-21T22:16:22.067Z,5.20
2022-10-21T22:18:49.342Z,5.20
2022-10-21T22:21:18.230Z,5.10
2022-10-21T22:23:45.383Z,5.10
2022-10-21T22:26:13.963Z,5.10
2022-10-21T22:28:41.597Z,5.10
2022-10-21T22:31:11.369Z,5.10
2022-10-21T22:33:38.674Z,5.00
2022-10-21T22:36:06.930Z,5.00
2022-10-21T22:38:33.783Z,5.00
2022-10-21T22:41:05.191Z,5.00
2022-10-21T22:43:34.178Z,5.00
2022-10-21T22:46:09.764Z,5.00
2022-10-21T22:48:47.906Z,5.00
2022-10-21T22:51:14.765Z,5.00
2022-10-21T22:53:41.707Z,5.00
2022-10-21T22:56:08.691Z,5.00
2022-10-21T22:58:35.609Z,5.00
2022-10-21T23:01:09.814Z,5.00
2022-10-21T23:03:37.289Z,5.00
2022-10-21T23:06:04.797Z,5.00
2022-10-21T23:08:31.917Z,5.00
2022-10-21T23:10:59.015Z,5.00
2022-10-21T23:13:26.149Z,5.00
2022-10-21T23:15:52.995Z,5.00
2022-10-21T23:18:19.899Z,5.10
2022-10-21T23:20:46.818Z,5.00
2022-10-21T23:23:13.868Z,5.00
2022-10-21T23:25:40.792Z,5.10
2022-10-21T23:28:09.879Z,5.00
2022-10-21T23:30:37.897Z,5.00
2022-10-21T23:33:04.843Z,5.00
2022-10-21T23:35:32.001Z,5.00
2022-10-21T23:37:59.490Z,5.10
2022-10-21T23:40:27.291Z,5.10
2022-10-21T23:42:54.401Z,5.10
2022-10-21T23:45:21.678Z,5.10
2022-10-21T23:47:48.539Z,5.10
2022-10-21T23:50:16.061Z,5.10
2022-10-21T23:52:42.926Z,5.10
2022-10-21T23:55:10.257Z,5.10
2022-10-21T23:57:37.635Z,5.10
